Flora, Illinois
Current Conditions -  °F | °C
As of 8:15 AM on Friday 19 Dec 2014 (Local Time) from KFOA Reporting Station
Haze Haze  
Wind Chill: 28°   Ceiling: Unl
Heat Index: 28°   Visibility: 4mi
Dew Point: 25°   Wind: 0mph
Humidity: 90%   Direction: NA
Pressure: 30.33"   Gusts: NA
Location:  38.67°N, 88.49°W
Report Text: KFOA 191415Z AUTO 00000KT 4SM BR CLR M02/M04 A3033 RMK AO2 T10241038
Loading
Personal Weather Stations






























Interactive Weather Map New forecast layout! Learn more

10-Day Weather Forecast

Advertisements
Track Severe Weather on mobile